Cheviot, Ohio
Current Conditions -  °F | °C
As of 10:34 PM on Friday 24 Oct 2014 (Local Time) from KI69 Reporting Station
Clear Clear  
Wind Chill: 52°   Ceiling: Unl
Heat Index: 52°   Visibility: 10mi
Dew Point: 41°   Wind: 3mph
Humidity: 67%   Direction: 230°SW
Pressure: 30.05"   Gusts: NA
Location:  39.1585°N, 84.5998°W
Report Text: KI69 250234Z AUTO 23003KT 10SM CLR 11/05 A3005 RMK AO1
Loading
Personal Weather Stations






























Interactive Weather Map
Tropical Storm Tracking
New forecast layout! Learn more

10-Day Weather Forecast

Advertisements
Track Severe Weather on mobile